sensor_id;sensor_type;location;lat;lon;timestamp;P1;durP1;ratioP1;P2;durP2;ratioP2
7903;SDS011;3997;48.416;8.512;2024-03-22T00:00:31;9.43;;;7.78;;
7903;SDS011;3997;48.416;8.512;2024-03-22T00:02:58;10.27;;;9.00;;
7903;SDS011;3997;48.416;8.512;2024-03-22T00:05:25;10.02;;;7.07;;
7903;SDS011;3997;48.416;8.512;2024-03-22T00:07:50;7.53;;;6.82;;
7903;SDS011;3997;48.416;8.512;2024-03-22T00:10:16;6.97;;;6.25;;
7903;SDS011;3997;48.416;8.512;2024-03-22T00:12:42;7.72;;;5.95;;
7903;SDS011;3997;48.416;8.512;2024-03-22T00:15:08;7.07;;;6.35;;
7903;SDS011;3997;48.416;8.512;2024-03-22T00:17:34;5.85;;;5.22;;
7903;SDS011;3997;48.416;8.512;2024-03-22T00:20:02;7.07;;;5.68;;
7903;SDS011;3997;48.416;8.512;2024-03-22T00:22:27;5.25;;;4.75;;
7903;SDS011;3997;48.416;8.512;2024-03-22T00:24:54;7.28;;;6.22;;
7903;SDS011;3997;48.416;8.512;2024-03-22T00:27:19;13.55;;;11.75;;
7903;SDS011;3997;48.416;8.512;2024-03-22T00:29:46;15.02;;;12.15;;
7903;SDS011;3997;48.416;8.512;2024-03-22T00:32:11;13.73;;;10.23;;
7903;SDS011;3997;48.416;8.512;2024-03-22T00:34:38;14.57;;;12.00;;
7903;SDS011;3997;48.416;8.512;2024-03-22T00:37:05;13.95;;;11.65;;
7903;SDS011;3997;48.416;8.512;2024-03-22T00:39:31;16.55;;;14.63;;
7903;SDS011;3997;48.416;8.512;2024-03-22T00:41:57;10.20;;;9.02;;
7903;SDS011;3997;48.416;8.512;2024-03-22T00:44:23;7.55;;;6.82;;
7903;SDS011;3997;48.416;8.512;2024-03-22T00:46:49;5.97;;;5.20;;
7903;SDS011;3997;48.416;8.512;2024-03-22T00:49:15;6.80;;;6.15;;
7903;SDS011;3997;48.416;8.512;2024-03-22T00:51:41;6.72;;;5.43;;
7903;SDS011;3997;48.416;8.512;2024-03-22T00:54:10;5.18;;;4.68;;
7903;SDS011;3997;48.416;8.512;2024-03-22T00:56:36;5.93;;;4.57;;
7903;SDS011;3997;48.416;8.512;2024-03-22T00:59:02;5.38;;;4.47;;
7903;SDS011;3997;48.416;8.512;2024-03-22T01:01:27;6.13;;;4.60;;
7903;SDS011;3997;48.416;8.512;2024-03-22T01:03:54;4.70;;;4.22;;
7903;SDS011;3997;48.416;8.512;2024-03-22T01:06:19;4.82;;;4.43;;
7903;SDS011;3997;48.416;8.512;2024-03-22T01:08:50;6.68;;;4.70;;
7903;SDS011;3997;48.416;8.512;2024-03-22T01:11:18;4.72;;;4.32;;
7903;SDS011;3997;48.416;8.512;2024-03-22T01:13:44;4.68;;;4.28;;
7903;SDS011;3997;48.416;8.512;2024-03-22T01:16:10;5.18;;;4.68;;
7903;SDS011;3997;48.416;8.512;2024-03-22T01:18:36;6.03;;;4.88;;
7903;SDS011;3997;48.416;8.512;2024-03-22T01:21:02;6.80;;;6.00;;
7903;SDS011;3997;48.416;8.512;2024-03-22T01:23:28;8.75;;;7.45;;
7903;SDS011;3997;48.416;8.512;2024-03-22T01:25:54;10.23;;;6.68;;
7903;SDS011;3997;48.416;8.512;2024-03-22T01:28:21;6.90;;;5.82;;
7903;SDS011;3997;48.416;8.512;2024-03-22T01:30:47;7.22;;;5.90;;
7903;SDS011;3997;48.416;8.512;2024-03-22T01:33:13;6.75;;;5.68;;
7903;SDS011;3997;48.416;8.512;2024-03-22T01:35:39;7.13;;;5.40;;
7903;SDS011;3997;48.416;8.512;2024-03-22T01:38:05;4.70;;;4.25;;
7903;SDS011;3997;48.416;8.512;2024-03-22T01:40:31;5.63;;;5.03;;
7903;SDS011;3997;48.416;8.512;2024-03-22T01:42:58;5.93;;;4.75;;
7903;SDS011;3997;48.416;8.512;2024-03-22T01:45:25;5.80;;;4.85;;
7903;SDS011;3997;48.416;8.512;2024-03-22T01:47:51;5.22;;;4.72;;
7903;SDS011;3997;48.416;8.512;2024-03-22T01:50:20;4.47;;;4.07;;
7903;SDS011;3997;48.416;8.512;2024-03-22T01:52:46;5.00;;;4.50;;
7903;SDS011;3997;48.416;8.512;2024-03-22T01:55:12;4.78;;;4.38;;
7903;SDS011;3997;48.416;8.512;2024-03-22T01:57:39;7.05;;;5.25;;
7903;SDS011;3997;48.416;8.512;2024-03-22T02:00:05;6.57;;;5.82;;
7903;SDS011;3997;48.416;8.512;2024-03-22T02:02:34;6.30;;;5.70;;
7903;SDS011;3997;48.416;8.512;2024-03-22T02:05:10;6.18;;;5.55;;
7903;SDS011;3997;48.416;8.512;2024-03-22T02:07:37;8.43;;;5.93;;
7903;SDS011;3997;48.416;8.512;2024-03-22T02:10:02;5.65;;;5.15;;
7903;SDS011;3997;48.416;8.512;2024-03-22T02:12:29;7.32;;;5.63;;
7903;SDS011;3997;48.416;8.512;2024-03-22T02:14:57;10.45;;;7.60;;
7903;SDS011;3997;48.416;8.512;2024-03-22T02:17:23;7.07;;;6.25;;
7903;SDS011;3997;48.416;8.512;2024-03-22T02:19:50;7.50;;;5.95;;
7903;SDS011;3997;48.416;8.512;2024-03-22T02:22:16;7.18;;;5.45;;
7903;SDS011;3997;48.416;8.512;2024-03-22T02:24:43;7.13;;;5.43;;
7903;SDS011;3997;48.416;8.512;2024-03-22T02:27:10;5.65;;;4.88;;
7903;SDS011;3997;48.416;8.512;2024-03-22T02:29:35;5.65;;;5.07;;
7903;SDS011;3997;48.416;8.512;2024-03-22T02:32:01;5.70;;;4.60;;
7903;SDS011;3997;48.416;8.512;2024-03-22T02:34:28;8.95;;;5.20;;
7903;SDS011;3997;48.416;8.512;2024-03-22T02:36:55;5.50;;;5.00;;
7903;SDS011;3997;48.416;8.512;2024-03-22T02:39:20;5.68;;;4.80;;
7903;SDS011;3997;48.416;8.512;2024-03-22T02:41:48;5.95;;;4.63;;
7903;SDS011;3997;48.416;8.512;2024-03-22T02:44:13;5.00;;;4.60;;
7903;SDS011;3997;48.416;8.512;2024-03-22T02:46:40;5.38;;;4.55;;
7903;SDS011;3997;48.416;8.512;2024-03-22T02:49:05;4.78;;;4.20;;
7903;SDS011;3997;48.416;8.512;2024-03-22T02:51:31;5.90;;;4.68;;
7903;SDS011;3997;48.416;8.512;2024-03-22T02:53:57;5.25;;;4.50;;
7903;SDS011;3997;48.416;8.512;2024-03-22T02:56:23;6.38;;;5.20;;
7903;SDS011;3997;48.416;8.512;2024-03-22T02:58:50;5.47;;;4.97;;
7903;SDS011;3997;48.416;8.512;2024-03-22T03:01:16;6.97;;;4.93;;
7903;SDS011;3997;48.416;8.512;2024-03-22T03:03:42;6.05;;;5.55;;
7903;SDS011;3997;48.416;8.512;2024-03-22T03:06:08;6.30;;;5.03;;
7903;SDS011;3997;48.416;8.512;2024-03-22T03:08:34;6.13;;;5.47;;
7903;SDS011;3997;48.416;8.512;2024-03-22T03:11:01;5.68;;;5.18;;
7903;SDS011;3997;48.416;8.512;2024-03-22T03:13:26;5.70;;;5.15;;
7903;SDS011;3997;48.416;8.512;2024-03-22T03:15:55;5.28;;;4.75;;
7903;SDS011;3997;48.416;8.512;2024-03-22T03:18:20;7.85;;;4.57;;
7903;SDS011;3997;48.416;8.512;2024-03-22T03:20:47;4.82;;;4.32;;
7903;SDS011;3997;48.416;8.512;2024-03-22T03:23:12;5.35;;;4.55;;
7903;SDS011;3997;48.416;8.512;2024-03-22T03:25:39;5.32;;;4.57;;
7903;SDS011;3997;48.416;8.512;2024-03-22T03:28:04;5.32;;;4.80;;
7903;SDS011;3997;48.416;8.512;2024-03-22T03:30:32;5.38;;;4.88;;
7903;SDS011;3997;48.416;8.512;2024-03-22T03:32:59;5.88;;;5.28;;
7903;SDS011;3997;48.416;8.512;2024-03-22T03:35:25;6.85;;;6.15;;
7903;SDS011;3997;48.416;8.512;2024-03-22T03:37:51;6.28;;;5.43;;
7903;SDS011;3997;48.416;8.512;2024-03-22T03:40:17;6.22;;;5.63;;
7903;SDS011;3997;48.416;8.512;2024-03-22T03:42:43;7.18;;;5.55;;
7903;SDS011;3997;48.416;8.512;2024-03-22T03:45:09;7.10;;;5.90;;
7903;SDS011;3997;48.416;8.512;2024-03-22T03:47:35;5.40;;;4.90;;
7903;SDS011;3997;48.416;8.512;2024-03-22T03:50:02;5.10;;;4.60;;
7903;SDS011;3997;48.416;8.512;2024-03-22T03:52:28;5.78;;;5.18;;
7903;SDS011;3997;48.416;8.512;2024-03-22T03:54:54;7.97;;;5.38;;
7903;SDS011;3997;48.416;8.512;2024-03-22T03:57:20;5.47;;;4.97;;
7903;SDS011;3997;48.416;8.512;2024-03-22T03:59:46;5.13;;;4.63;;
7903;SDS011;3997;48.416;8.512;2024-03-22T04:02:12;5.32;;;4.22;;
7903;SDS011;3997;48.416;8.512;2024-03-22T04:04:38;5.30;;;4.60;;
7903;SDS011;3997;48.416;8.512;2024-03-22T04:07:05;6.60;;;4.38;;
7903;SDS011;3997;48.416;8.512;2024-03-22T04:09:32;5.55;;;4.80;;
7903;SDS011;3997;48.416;8.512;2024-03-22T04:11:58;5.05;;;4.55;;
7903;SDS011;3997;48.416;8.512;2024-03-22T04:14:25;4.63;;;4.22;;
7903;SDS011;3997;48.416;8.512;2024-03-22T04:16:50;4.25;;;3.85;;
7903;SDS011;3997;48.416;8.512;2024-03-22T04:19:16;4.95;;;4.55;;
7903;SDS011;3997;48.416;8.512;2024-03-22T04:21:45;6.25;;;3.97;;
7903;SDS011;3997;48.416;8.512;2024-03-22T04:24:15;5.20;;;4.35;;
7903;SDS011;3997;48.416;8.512;2024-03-22T04:26:41;5.03;;;4.43;;
7903;SDS011;3997;48.416;8.512;2024-03-22T04:29:07;5.10;;;4.60;;
7903;SDS011;3997;48.416;8.512;2024-03-22T04:31:33;5.63;;;4.80;;
7903;SDS011;3997;48.416;8.512;2024-03-22T04:33:59;5.93;;;4.72;;
7903;SDS011;3997;48.416;8.512;2024-03-22T04:36:25;4.88;;;4.38;;
7903;SDS011;3997;48.416;8.512;2024-03-22T04:38:51;6.38;;;5.20;;
7903;SDS011;3997;48.416;8.512;2024-03-22T04:41:23;4.85;;;4.38;;
7903;SDS011;3997;48.416;8.512;2024-03-22T04:43:50;5.75;;;4.70;;
7903;SDS011;3997;48.416;8.512;2024-03-22T04:46:16;6.80;;;4.82;;
7903;SDS011;3997;48.416;8.512;2024-03-22T04:48:42;5.55;;;4.85;;
7903;SDS011;3997;48.416;8.512;2024-03-22T04:51:07;4.95;;;4.15;;
7903;SDS011;3997;48.416;8.512;2024-03-22T04:53:34;5.03;;;4.50;;
7903;SDS011;3997;48.416;8.512;2024-03-22T04:55:59;4.97;;;4.50;;
7903;SDS011;3997;48.416;8.512;2024-03-22T04:58:28;8.43;;;4.65;;
7903;SDS011;3997;48.416;8.512;2024-03-22T05:00:58;5.03;;;4.53;;
7903;SDS011;3997;48.416;8.512;2024-03-22T05:03:24;7.40;;;4.90;;
7903;SDS011;3997;48.416;8.512;2024-03-22T05:05:53;4.35;;;3.83;;
7903;SDS011;3997;48.416;8.512;2024-03-22T05:08:23;5.22;;;4.47;;
7903;SDS011;3997;48.416;8.512;2024-03-22T05:10:49;5.22;;;4.55;;
7903;SDS011;3997;48.416;8.512;2024-03-22T05:13:18;6.90;;;5.40;;
7903;SDS011;3997;48.416;8.512;2024-03-22T05:15:45;5.35;;;4.43;;
7903;SDS011;3997;48.416;8.512;2024-03-22T05:18:13;6.03;;;4.65;;
7903;SDS011;3997;48.416;8.512;2024-03-22T05:20:38;5.78;;;5.20;;
7903;SDS011;3997;48.416;8.512;2024-03-22T05:23:05;6.32;;;5.03;;
7903;SDS011;3997;48.416;8.512;2024-03-22T05:25:30;6.03;;;5.05;;
7903;SDS011;3997;48.416;8.512;2024-03-22T05:27:57;7.60;;;5.65;;
7903;SDS011;3997;48.416;8.512;2024-03-22T05:30:22;6.25;;;5.57;;
7903;SDS011;3997;48.416;8.512;2024-03-22T05:32:50;5.43;;;4.93;;
7903;SDS011;3997;48.416;8.512;2024-03-22T05:35:15;5.95;;;5.35;;
7903;SDS011;3997;48.416;8.512;2024-03-22T05:37:43;7.93;;;5.65;;
7903;SDS011;3997;48.416;8.512;2024-03-22T05:40:09;9.32;;;5.50;;
7903;SDS011;3997;48.416;8.512;2024-03-22T05:42:36;7.15;;;6.45;;
7903;SDS011;3997;48.416;8.512;2024-03-22T05:45:01;6.88;;;5.68;;
7903;SDS011;3997;48.416;8.512;2024-03-22T05:47:28;7.30;;;6.43;;
7903;SDS011;3997;48.416;8.512;2024-03-22T05:49:57;7.57;;;6.40;;
7903;SDS011;3997;48.416;8.512;2024-03-22T05:52:23;7.18;;;6.00;;
7903;SDS011;3997;48.416;8.512;2024-03-22T05:54:49;7.15;;;5.72;;
7903;SDS011;3997;48.416;8.512;2024-03-22T05:57:16;8.85;;;6.75;;
7903;SDS011;3997;48.416;8.512;2024-03-22T05:59:41;6.15;;;5.53;;
7903;SDS011;3997;48.416;8.512;2024-03-22T06:02:08;8.10;;;6.68;;
7903;SDS011;3997;48.416;8.512;2024-03-22T06:04:33;7.47;;;5.53;;
7903;SDS011;3997;48.416;8.512;2024-03-22T06:07:02;9.32;;;5.32;;
7903;SDS011;3997;48.416;8.512;2024-03-22T06:09:29;7.40;;;5.25;;
7903;SDS011;3997;48.416;8.512;2024-03-22T06:12:02;8.48;;;6.10;;
7903;SDS011;3997;48.416;8.512;2024-03-22T06:14:27;6.97;;;5.82;;
7903;SDS011;3997;48.416;8.512;2024-03-22T06:16:54;6.32;;;5.47;;
7903;SDS011;3997;48.416;8.512;2024-03-22T06:19:19;6.72;;;5.30;;
7903;SDS011;3997;48.416;8.512;2024-03-22T06:21:46;6.65;;;5.32;;
7903;SDS011;3997;48.416;8.512;2024-03-22T06:24:13;6.13;;;5.15;;
7903;SDS011;3997;48.416;8.512;2024-03-22T06:26:39;7.07;;;5.45;;
7903;SDS011;3997;48.416;8.512;2024-03-22T06:29:05;6.70;;;5.45;;
7903;SDS011;3997;48.416;8.512;2024-03-22T06:31:31;8.02;;;5.97;;
7903;SDS011;3997;48.416;8.512;2024-03-22T06:33:57;6.03;;;5.38;;
7903;SDS011;3997;48.416;8.512;2024-03-22T06:36:27;6.18;;;5.57;;
7903;SDS011;3997;48.416;8.512;2024-03-22T06:38:52;6.55;;;5.85;;
7903;SDS011;3997;48.416;8.512;2024-03-22T06:41:20;8.27;;;5.68;;
7903;SDS011;3997;48.416;8.512;2024-03-22T06:43:45;8.13;;;5.60;;
7903;SDS011;3997;48.416;8.512;2024-03-22T06:46:12;8.65;;;6.60;;
7903;SDS011;3997;48.416;8.512;2024-03-22T06:48:37;6.63;;;5.70;;
7903;SDS011;3997;48.416;8.512;2024-03-22T06:51:04;5.90;;;5.30;;
7903;SDS011;3997;48.416;8.512;2024-03-22T06:53:29;6.55;;;5.90;;
7903;SDS011;3997;48.416;8.512;2024-03-22T06:55:56;6.70;;;6.00;;
7903;SDS011;3997;48.416;8.512;2024-03-22T06:58:22;8.07;;;6.35;;
7903;SDS011;3997;48.416;8.512;2024-03-22T07:00:50;6.30;;;5.68;;
7903;SDS011;3997;48.416;8.512;2024-03-22T07:03:15;6.22;;;5.57;;
7903;SDS011;3997;48.416;8.512;2024-03-22T07:05:42;7.38;;;6.20;;
7903;SDS011;3997;48.416;8.512;2024-03-22T07:08:07;6.57;;;5.70;;
7903;SDS011;3997;48.416;8.512;2024-03-22T07:10:34;6.10;;;4.97;;
7903;SDS011;3997;48.416;8.512;2024-03-22T07:12:59;5.97;;;5.38;;
7903;SDS011;3997;48.416;8.512;2024-03-22T07:15:27;5.45;;;4.95;;
7903;SDS011;3997;48.416;8.512;2024-03-22T07:17:54;5.72;;;5.13;;
7903;SDS011;3997;48.416;8.512;2024-03-22T07:20:21;6.80;;;4.95;;
7903;SDS011;3997;48.416;8.512;2024-03-22T07:22:46;5.88;;;4.53;;
7903;SDS011;3997;48.416;8.512;2024-03-22T07:25:13;5.85;;;4.57;;
7903;SDS011;3997;48.416;8.512;2024-03-22T07:27:38;5.38;;;4.50;;
7903;SDS011;3997;48.416;8.512;2024-03-22T07:30:05;7.90;;;4.72;;
7903;SDS011;3997;48.416;8.512;2024-03-22T07:32:32;7.63;;;4.80;;
7903;SDS011;3997;48.416;8.512;2024-03-22T07:34:58;6.55;;;5.07;;
7903;SDS011;3997;48.416;8.512;2024-03-22T07:37:24;7.13;;;5.03;;
7903;SDS011;3997;48.416;8.512;2024-03-22T07:39:50;4.93;;;4.40;;
7903;SDS011;3997;48.416;8.512;2024-03-22T07:42:16;5.43;;;4.60;;
7903;SDS011;3997;48.416;8.512;2024-03-22T07:44:42;7.03;;;5.20;;
7903;SDS011;3997;48.416;8.512;2024-03-22T07:47:08;6.43;;;5.03;;
7903;SDS011;3997;48.416;8.512;2024-03-22T07:49:36;4.70;;;4.20;;
7903;SDS011;3997;48.416;8.512;2024-03-22T07:52:02;5.47;;;4.45;;
7903;SDS011;3997;48.416;8.512;2024-03-22T07:54:29;4.68;;;4.20;;
7903;SDS011;3997;48.416;8.512;2024-03-22T07:56:54;4.40;;;4.00;;
7903;SDS011;3997;48.416;8.512;2024-03-22T07:59:21;5.55;;;3.75;;
7903;SDS011;3997;48.416;8.512;2024-03-22T08:01:46;4.00;;;3.70;;
7903;SDS011;3997;48.416;8.512;2024-03-22T08:04:13;5.53;;;4.03;;
7903;SDS011;3997;48.416;8.512;2024-03-22T08:06:40;5.28;;;4.07;;
7903;SDS011;3997;48.416;8.512;2024-03-22T08:09:06;5.90;;;4.00;;
7903;SDS011;3997;48.416;8.512;2024-03-22T08:11:32;5.35;;;4.47;;
7903;SDS011;3997;48.416;8.512;2024-03-22T08:13:59;6.40;;;4.72;;
7903;SDS011;3997;48.416;8.512;2024-03-22T08:16:28;5.35;;;4.75;;
7903;SDS011;3997;48.416;8.512;2024-03-22T08:18:54;6.40;;;5.13;;
7903;SDS011;3997;48.416;8.512;2024-03-22T08:21:20;5.00;;;4.38;;
7903;SDS011;3997;48.416;8.512;2024-03-22T08:23:48;8.80;;;5.60;;
7903;SDS011;3997;48.416;8.512;2024-03-22T08:26:13;7.43;;;5.30;;
7903;SDS011;3997;48.416;8.512;2024-03-22T08:28:40;6.80;;;4.93;;
7903;SDS011;3997;48.416;8.512;2024-03-22T08:31:05;6.80;;;4.95;;
7903;SDS011;3997;48.416;8.512;2024-03-22T08:33:32;6.00;;;5.00;;
7903;SDS011;3997;48.416;8.512;2024-03-22T08:35:57;4.88;;;4.38;;
7903;SDS011;3997;48.416;8.512;2024-03-22T08:38:24;6.75;;;5.13;;
7903;SDS011;3997;48.416;8.512;2024-03-22T08:40:51;6.32;;;5.05;;
7903;SDS011;3997;48.416;8.512;2024-03-22T08:43:17;7.10;;;4.68;;
7903;SDS011;3997;48.416;8.512;2024-03-22T08:45:43;6.72;;;4.90;;
7903;SDS011;3997;48.416;8.512;2024-03-22T08:48:09;5.35;;;4.53;;
7903;SDS011;3997;48.416;8.512;2024-03-22T08:50:35;5.05;;;4.57;;
7903;SDS011;3997;48.416;8.512;2024-03-22T08:53:01;6.10;;;4.70;;
7903;SDS011;3997;48.416;8.512;2024-03-22T08:55:28;6.57;;;4.47;;
7903;SDS011;3997;48.416;8.512;2024-03-22T08:57:56;7.82;;;5.05;;
7903;SDS011;3997;48.416;8.512;2024-03-22T09:00:21;8.68;;;4.68;;
7903;SDS011;3997;48.416;8.512;2024-03-22T09:02:48;6.30;;;4.78;;
7903;SDS011;3997;48.416;8.512;2024-03-22T09:05:14;6.55;;;5.07;;
7903;SDS011;3997;48.416;8.512;2024-03-22T09:07:40;4.45;;;4.03;;
7903;SDS011;3997;48.416;8.512;2024-03-22T09:10:06;4.70;;;4.30;;
7903;SDS011;3997;48.416;8.512;2024-03-22T09:12:33;5.28;;;4.47;;
7903;SDS011;3997;48.416;8.512;2024-03-22T09:14:59;7.47;;;4.55;;
7903;SDS011;3997;48.416;8.512;2024-03-22T09:17:27;6.10;;;4.50;;
7903;SDS011;3997;48.416;8.512;2024-03-22T09:19:52;5.07;;;4.22;;
7903;SDS011;3997;48.416;8.512;2024-03-22T09:22:18;6.53;;;4.55;;
7903;SDS011;3997;48.416;8.512;2024-03-22T09:24:44;4.53;;;3.95;;
7903;SDS011;3997;48.416;8.512;2024-03-22T09:27:10;6.57;;;4.28;;
7903;SDS011;3997;48.416;8.512;2024-03-22T09:29:36;4.85;;;4.18;;
7903;SDS011;3997;48.416;8.512;2024-03-22T09:32:05;5.43;;;3.90;;
7903;SDS011;3997;48.416;8.512;2024-03-22T09:34:30;4.88;;;4.20;;
7903;SDS011;3997;48.416;8.512;2024-03-22T09:36:56;3.63;;;3.33;;
7903;SDS011;3997;48.416;8.512;2024-03-22T09:39:23;4.00;;;3.58;;
7903;SDS011;3997;48.416;8.512;2024-03-22T09:41:48;4.85;;;4.22;;
7903;SDS011;3997;48.416;8.512;2024-03-22T09:44:17;3.92;;;3.55;;
7903;SDS011;3997;48.416;8.512;2024-03-22T09:46:43;4.53;;;3.00;;
7903;SDS011;3997;48.416;8.512;2024-03-22T09:49:11;3.63;;;3.17;;
7903;SDS011;3997;48.416;8.512;2024-03-22T09:51:37;4.72;;;3.13;;
7903;SDS011;3997;48.416;8.512;2024-03-22T09:54:03;4.03;;;3.25;;
7903;SDS011;3997;48.416;8.512;2024-03-22T09:56:29;5.18;;;3.20;;
7903;SDS011;3997;48.416;8.512;2024-03-22T09:58:56;4.15;;;3.08;;
7903;SDS011;3997;48.416;8.512;2024-03-22T10:01:22;2.70;;;2.50;;
7903;SDS011;3997;48.416;8.512;2024-03-22T10:03:49;3.20;;;2.78;;
7903;SDS011;3997;48.416;8.512;2024-03-22T10:06:16;2.92;;;2.72;;
7903;SDS011;3997;48.416;8.512;2024-03-22T10:08:43;3.80;;;2.80;;
7903;SDS011;3997;48.416;8.512;2024-03-22T10:11:09;3.63;;;2.83;;
7903;SDS011;3997;48.416;8.512;2024-03-22T10:13:36;2.47;;;2.28;;
7903;SDS011;3997;48.416;8.512;2024-03-22T10:16:01;2.63;;;2.35;;
7903;SDS011;3997;48.416;8.512;2024-03-22T10:18:28;2.88;;;2.60;;
7903;SDS011;3997;48.416;8.512;2024-03-22T10:21:00;3.75;;;2.83;;
7903;SDS011;3997;48.416;8.512;2024-03-22T10:23:28;3.03;;;2.72;;
7903;SDS011;3997;48.416;8.512;2024-03-22T10:25:55;2.63;;;2.42;;
7903;SDS011;3997;48.416;8.512;2024-03-22T10:28:23;3.95;;;2.30;;
7903;SDS011;3997;48.416;8.512;2024-03-22T10:30:49;3.45;;;2.47;;
7903;SDS011;3997;48.416;8.512;2024-03-22T10:33:17;2.30;;;2.10;;
7903;SDS011;3997;48.416;8.512;2024-03-22T10:35:43;2.00;;;1.88;;
7903;SDS011;3997;48.416;8.512;2024-03-22T10:38:10;2.42;;;2.22;;
7903;SDS011;3997;48.416;8.512;2024-03-22T10:40:39;2.35;;;2.00;;
7903;SDS011;3997;48.416;8.512;2024-03-22T10:43:06;2.60;;;2.40;;
7903;SDS011;3997;48.416;8.512;2024-03-22T10:45:31;2.85;;;2.40;;
7903;SDS011;3997;48.416;8.512;2024-03-22T10:47:58;3.25;;;2.20;;
7903;SDS011;3997;48.416;8.512;2024-03-22T10:50:27;2.78;;;2.20;;
7903;SDS011;3997;48.416;8.512;2024-03-22T10:52:56;3.50;;;2.80;;
7903;SDS011;3997;48.416;8.512;2024-03-22T10:55:24;2.40;;;2.20;;
7903;SDS011;3997;48.416;8.512;2024-03-22T10:57:54;2.53;;;2.33;;
7903;SDS011;3997;48.416;8.512;2024-03-22T11:00:27;2.40;;;2.20;;
7903;SDS011;3997;48.416;8.512;2024-03-22T11:02:53;3.75;;;2.40;;
7903;SDS011;3997;48.416;8.512;2024-03-22T11:05:19;2.88;;;2.47;;
7903;SDS011;3997;48.416;8.512;2024-03-22T11:07:45;4.30;;;2.60;;
7903;SDS011;3997;48.416;8.512;2024-03-22T11:10:11;2.53;;;2.42;;
7903;SDS011;3997;48.416;8.512;2024-03-22T11:12:38;3.10;;;2.30;;
7903;SDS011;3997;48.416;8.512;2024-03-22T11:15:05;2.53;;;2.33;;
7903;SDS011;3997;48.416;8.512;2024-03-22T11:17:31;1.98;;;1.88;;
7903;SDS011;3997;48.416;8.512;2024-03-22T11:19:57;2.10;;;2.00;;
7903;SDS011;3997;48.416;8.512;2024-03-22T11:22:24;3.05;;;2.40;;
7903;SDS011;3997;48.416;8.512;2024-03-22T11:24:50;2.50;;;2.20;;
7903;SDS011;3997;48.416;8.512;2024-03-22T11:27:16;2.38;;;2.17;;
7903;SDS011;3997;48.416;8.512;2024-03-22T11:29:42;2.30;;;2.17;;
7903;SDS011;3997;48.416;8.512;2024-03-22T11:32:10;4.20;;;2.45;;
7903;SDS011;3997;48.416;8.512;2024-03-22T11:34:37;2.10;;;1.90;;
7903;SDS011;3997;48.416;8.512;2024-03-22T11:37:05;2.00;;;1.90;;
7903;SDS011;3997;48.416;8.512;2024-03-22T11:39:32;2.15;;;1.95;;
7903;SDS011;3997;48.416;8.512;2024-03-22T11:42:00;3.17;;;2.15;;
7903;SDS011;3997;48.416;8.512;2024-03-22T11:44:25;2.10;;;2.00;;
7903;SDS011;3997;48.416;8.512;2024-03-22T11:46:52;2.17;;;2.08;;
7903;SDS011;3997;48.416;8.512;2024-03-22T11:49:19;2.88;;;2.10;;
7903;SDS011;3997;48.416;8.512;2024-03-22T11:51:45;2.28;;;2.17;;
7903;SDS011;3997;48.416;8.512;2024-03-22T11:54:11;2.92;;;2.13;;
7903;SDS011;3997;48.416;8.512;2024-03-22T11:56:37;2.05;;;1.90;;
7903;SDS011;3997;48.416;8.512;2024-03-22T11:59:04;2.10;;;2.00;;
7903;SDS011;3997;48.416;8.512;2024-03-22T12:01:32;2.05;;;1.95;;
7903;SDS011;3997;48.416;8.512;2024-03-22T12:03:58;2.58;;;1.83;;
7903;SDS011;3997;48.416;8.512;2024-03-22T12:06:26;1.88;;;1.77;;
7903;SDS011;3997;48.416;8.512;2024-03-22T12:08:51;3.70;;;1.90;;
7903;SDS011;3997;48.416;8.512;2024-03-22T12:11:18;1.67;;;1.58;;
7903;SDS011;3997;48.416;8.512;2024-03-22T12:13:43;2.20;;;2.10;;
7903;SDS011;3997;48.416;8.512;2024-03-22T12:16:10;1.83;;;1.73;;
7903;SDS011;3997;48.416;8.512;2024-03-22T12:18:35;2.38;;;2.13;;
7903;SDS011;3997;48.416;8.512;2024-03-22T12:21:02;2.05;;;1.90;;
7903;SDS011;3997;48.416;8.512;2024-03-22T12:23:28;2.10;;;2.00;;
7903;SDS011;3997;48.416;8.512;2024-03-22T12:25:55;2.17;;;2.08;;
7903;SDS011;3997;48.416;8.512;2024-03-22T12:28:21;2.38;;;2.17;;
7903;SDS011;3997;48.416;8.512;2024-03-22T12:30:47;2.33;;;2.22;;
7903;SDS011;3997;48.416;8.512;2024-03-22T12:33:13;2.28;;;2.08;;
7903;SDS011;3997;48.416;8.512;2024-03-22T12:35:40;2.38;;;2.15;;
7903;SDS011;3997;48.416;8.512;2024-03-22T12:38:05;1.90;;;1.77;;
7903;SDS011;3997;48.416;8.512;2024-03-22T12:40:36;2.17;;;2.08;;
7903;SDS011;3997;48.416;8.512;2024-03-22T12:43:02;2.22;;;2.13;;
7903;SDS011;3997;48.416;8.512;2024-03-22T12:45:28;1.92;;;1.83;;
7903;SDS011;3997;48.416;8.512;2024-03-22T12:47:54;1.98;;;1.85;;
7903;SDS011;3997;48.416;8.512;2024-03-22T12:50:20;2.28;;;2.17;;
7903;SDS011;3997;48.416;8.512;2024-03-22T12:52:46;2.33;;;2.05;;
7903;SDS011;3997;48.416;8.512;2024-03-22T12:55:12;1.98;;;1.88;;
7903;SDS011;3997;48.416;8.512;2024-03-22T12:57:39;1.80;;;1.70;;
7903;SDS011;3997;48.416;8.512;2024-03-22T13:00:06;2.03;;;1.92;;
7903;SDS011;3997;48.416;8.512;2024-03-22T13:02:37;1.90;;;1.80;;
7903;SDS011;3997;48.416;8.512;2024-03-22T13:05:04;1.95;;;1.77;;
7903;SDS011;3997;48.416;8.512;2024-03-22T13:07:30;2.15;;;1.77;;
7903;SDS011;3997;48.416;8.512;2024-03-22T13:09:56;1.50;;;1.50;;
7903;SDS011;3997;48.416;8.512;2024-03-22T13:12:22;2.53;;;1.73;;
7903;SDS011;3997;48.416;8.512;2024-03-22T13:14:50;1.90;;;1.80;;
7903;SDS011;3997;48.416;8.512;2024-03-22T13:17:17;1.92;;;1.83;;
7903;SDS011;3997;48.416;8.512;2024-03-22T13:19:43;1.92;;;1.83;;
7903;SDS011;3997;48.416;8.512;2024-03-22T13:22:09;1.92;;;1.83;;
7903;SDS011;3997;48.416;8.512;2024-03-22T13:24:35;2.45;;;1.90;;
7903;SDS011;3997;48.416;8.512;2024-03-22T13:27:01;2.08;;;1.98;;
7903;SDS011;3997;48.416;8.512;2024-03-22T13:29:28;2.10;;;2.00;;
7903;SDS011;3997;48.416;8.512;2024-03-22T13:31:55;2.33;;;2.22;;
7903;SDS011;3997;48.416;8.512;2024-03-22T13:34:21;2.40;;;1.80;;
7903;SDS011;3997;48.416;8.512;2024-03-22T13:36:46;2.22;;;2.03;;
7903;SDS011;3997;48.416;8.512;2024-03-22T13:39:13;2.10;;;2.00;;
7903;SDS011;3997;48.416;8.512;2024-03-22T13:41:40;2.10;;;2.00;;
7903;SDS011;3997;48.416;8.512;2024-03-22T13:44:07;2.13;;;2.03;;
7903;SDS011;3997;48.416;8.512;2024-03-22T13:46:33;1.75;;;1.65;;
7903;SDS011;3997;48.416;8.512;2024-03-22T13:49:02;2.10;;;2.00;;
7903;SDS011;3997;48.416;8.512;2024-03-22T13:51:28;2.17;;;2.08;;
7903;SDS011;3997;48.416;8.512;2024-03-22T13:53:56;2.03;;;1.92;;
7903;SDS011;3997;48.416;8.512;2024-03-22T13:56:22;2.53;;;2.03;;
7903;SDS011;3997;48.416;8.512;2024-03-22T13:58:48;2.13;;;2.03;;
7903;SDS011;3997;48.416;8.512;2024-03-22T14:01:14;2.17;;;2.08;;
7903;SDS011;3997;48.416;8.512;2024-03-22T14:03:40;2.05;;;1.95;;
7903;SDS011;3997;48.416;8.512;2024-03-22T14:06:07;2.10;;;2.00;;
7903;SDS011;3997;48.416;8.512;2024-03-22T14:08:33;2.08;;;1.98;;
7903;SDS011;3997;48.416;8.512;2024-03-22T14:10:59;2.50;;;2.40;;
7903;SDS011;3997;48.416;8.512;2024-03-22T14:13:25;2.25;;;2.05;;
7903;SDS011;3997;48.416;8.512;2024-03-22T14:15:51;2.20;;;2.10;;
7903;SDS011;3997;48.416;8.512;2024-03-22T14:18:17;1.92;;;1.83;;
7903;SDS011;3997;48.416;8.512;2024-03-22T14:20:43;2.47;;;2.35;;
7903;SDS011;3997;48.416;8.512;2024-03-22T14:23:10;2.08;;;1.98;;
7903;SDS011;3997;48.416;8.512;2024-03-22T14:25:36;2.33;;;2.22;;
7903;SDS011;3997;48.416;8.512;2024-03-22T14:28:02;2.03;;;1.83;;
7903;SDS011;3997;48.416;8.512;2024-03-22T14:30:28;2.20;;;2.10;;
7903;SDS011;3997;48.416;8.512;2024-03-22T14:32:54;2.40;;;2.25;;
7903;SDS011;3997;48.416;8.512;2024-03-22T14:35:20;2.00;;;1.90;;
7903;SDS011;3997;48.416;8.512;2024-03-22T14:37:47;2.38;;;2.17;;
7903;SDS011;3997;48.416;8.512;2024-03-22T14:40:14;2.10;;;2.00;;
7903;SDS011;3997;48.416;8.512;2024-03-22T14:42:42;2.35;;;1.98;;
7903;SDS011;3997;48.416;8.512;2024-03-22T14:45:09;2.13;;;2.03;;
7903;SDS011;3997;48.416;8.512;2024-03-22T14:47:36;1.88;;;1.70;;
7903;SDS011;3997;48.416;8.512;2024-03-22T14:50:01;1.90;;;1.80;;
7903;SDS011;3997;48.416;8.512;2024-03-22T14:52:28;1.95;;;1.85;;
7903;SDS011;3997;48.416;8.512;2024-03-22T14:54:54;2.33;;;2.08;;
7903;SDS011;3997;48.416;8.512;2024-03-22T14:57:22;1.92;;;1.83;;
7903;SDS011;3997;48.416;8.512;2024-03-22T14:59:47;1.80;;;1.70;;
7903;SDS011;3997;48.416;8.512;2024-03-22T15:02:17;2.30;;;2.13;;
7903;SDS011;3997;48.416;8.512;2024-03-22T15:04:43;2.30;;;2.10;;
7903;SDS011;3997;48.416;8.512;2024-03-22T15:07:09;2.33;;;2.13;;
7903;SDS011;3997;48.416;8.512;2024-03-22T15:09:35;2.10;;;1.90;;